Time;durP1;ratioP1;P1;durP2;ratioP2;P2;SDS_P1;SDS_P2;PMS_P1;PMS_P2;Temp;Humidity;BMP_temperature;BMP_pressure;BME280_temperature;BME280_humidity;BME280_pressure;Samples;Min_cycle;Max_cycle;Signal;HPM_P1;HPM_P2
2022/07/05 00:01:48;;;;;;;;;;;;;;;17.46;58.45;101554.50;5039311;28;19986;-78
2022/07/05 00:04:13;;;;;;;;;;;;;;;17.48;59.07;101562.28;5041626;28;19960;-78
2022/07/05 00:07:17;;;;;;;;;;;;;;;17.49;58.92;101564.03;5023648;28;19924;-78
2022/07/05 00:09:24;;;;;;;;;;;;;;;17.36;59.73;101558.34;5027777;28;19947;-77
2022/07/05 00:11:49;;;;;;;;;;;;;;;17.45;59.26;101558.03;5049619;28;19939;-77
2022/07/05 00:14:14;;;;;;;;;;;;;;;17.47;58.91;101552.72;5042836;28;19931;-78
2022/07/05 00:16:40;;;;;;;;;;;;;;;17.41;59.33;101559.03;5042445;28;19933;-78
2022/07/05 00:19:05;;;;;;;;;;;;;;;17.36;59.62;101560.97;5043819;28;19928;-78
2022/07/05 00:21:30;;;;;;;;;;;;;;;17.34;60.30;101554.06;5045311;28;19934;-78
2022/07/05 00:23:56;;;;;;;;;;;;;;;17.32;60.41;101562.00;5040245;28;20311;-78
2022/07/05 00:26:21;;;;;;;;;;;;;;;17.36;60.30;101560.13;5017899;28;19940;-78
2022/07/05 00:28:46;;;;;;;;;;;;;;;17.31;60.25;101567.31;5025527;28;19925;-81
2022/07/05 00:31:11;;;;;;;;;;;;;;;17.28;60.16;101570.06;5043532;28;20013;-81
2022/07/05 00:33:37;;;;;;;;;;;;;;;17.30;60.27;101570.84;5039506;28;19931;-81
2022/07/05 00:36:02;;;;;;;;;;;;;;;17.38;59.92;101567.03;5022797;28;19928;-82
2022/07/05 00:38:27;;;;;;;;;;;;;;;17.31;59.07;101573.44;5027246;28;20547;-78
2022/07/05 00:40:53;;;;;;;;;;;;;;;17.27;59.78;101573.59;5043545;28;19925;-78
2022/07/05 00:43:18;;;;;;;;;;;;;;;17.34;59.25;101578.56;5024881;28;19955;-78
2022/07/05 00:45:43;;;;;;;;;;;;;;;17.43;58.89;101572.13;5025911;28;20427;-78
2022/07/05 00:48:09;;;;;;;;;;;;;;;17.34;59.72;101569.84;5031697;28;20013;-78
2022/07/05 00:50:34;;;;;;;;;;;;;;;17.33;59.20;101573.34;5016246;28;19925;-78
2022/07/05 00:53:00;;;;;;;;;;;;;;;17.23;59.81;101583.38;5041370;28;19967;-77
2022/07/05 00:55:25;;;;;;;;;;;;;;;17.27;59.03;101578.84;5042519;28;20332;-77
2022/07/05 00:57:50;;;;;;;;;;;;;;;17.28;59.06;101577.94;5044805;28;19933;-77
2022/07/05 01:00:16;;;;;;;;;;;;;;;17.29;59.32;101575.25;5041671;28;19987;-77
2022/07/05 01:02:41;;;;;;;;;;;;;;;17.30;59.69;101573.47;5046125;28;19932;-77
2022/07/05 01:05:07;;;;;;;;;;;;;;;17.28;59.56;101576.16;5042293;28;20485;-77
2022/07/05 01:07:32;;;;;;;;;;;;;;;17.23;59.35;101580.75;5046774;28;20277;-77
2022/07/05 01:09:57;;;;;;;;;;;;;;;17.18;59.41;101584.41;5047788;28;19923;-77
2022/07/05 01:12:23;;;;;;;;;;;;;;;17.23;59.62;101586.00;5011410;28;19924;-77
2022/07/05 01:14:48;;;;;;;;;;;;;;;17.23;60.05;101587.75;5042801;28;19925;-77
2022/07/05 01:17:14;;;;;;;;;;;;;;;17.24;60.10;101587.69;5046615;28;20020;-76
2022/07/05 01:19:39;;;;;;;;;;;;;;;17.09;60.44;101588.22;5046542;28;20019;-77
2022/07/05 01:22:10;;;;;;;;;;;;;;;17.12;60.07;101584.63;5042598;28;19969;-77
2022/07/05 01:24:36;;;;;;;;;;;;;;;17.12;59.90;101582.88;5027482;28;19948;-76
2022/07/05 01:27:01;;;;;;;;;;;;;;;17.16;59.93;101588.88;5047793;28;19920;-77
2022/07/05 01:29:27;;;;;;;;;;;;;;;17.10;60.13;101592.56;5045286;28;19921;-77
2022/07/05 01:31:52;;;;;;;;;;;;;;;17.02;60.07;101587.59;5045552;28;19928;-78
2022/07/05 01:34:18;;;;;;;;;;;;;;;17.01;61.00;101587.63;5033286;28;19929;-81
2022/07/05 01:36:43;;;;;;;;;;;;;;;16.96;60.87;101589.56;5045534;28;19928;-81
2022/07/05 01:39:08;;;;;;;;;;;;;;;17.06;60.18;101588.31;5045067;28;19928;-81
2022/07/05 01:41:34;;;;;;;;;;;;;;;16.98;61.53;101591.22;5027943;28;19982;-81
2022/07/05 01:43:59;;;;;;;;;;;;;;;16.96;61.58;101585.19;5040378;28;19925;-81
2022/07/05 01:46:26;;;;;;;;;;;;;;;16.94;61.62;101592.22;5042299;28;19960;-79
2022/07/05 01:48:53;;;;;;;;;;;;;;;16.91;61.58;101584.47;5026279;28;19936;-78
2022/07/05 01:51:21;;;;;;;;;;;;;;;16.87;62.06;101596.00;5047018;28;19920;-78
2022/07/05 01:53:49;;;;;;;;;;;;;;;16.85;62.01;101600.41;5045007;28;19929;-78
2022/07/05 01:56:15;;;;;;;;;;;;;;;16.90;62.61;101585.41;5027703;28;19925;-78
2022/07/05 01:58:41;;;;;;;;;;;;;;;16.86;61.86;101596.03;5026723;28;19977;-78
2022/07/05 02:01:06;;;;;;;;;;;;;;;16.80;61.75;101596.22;5025338;28;19920;-78
2022/07/05 02:03:32;;;;;;;;;;;;;;;16.86;62.07;101599.50;5038383;28;21253;-78
2022/07/05 02:05:57;;;;;;;;;;;;;;;16.93;61.29;101589.69;5044282;28;19928;-78
2022/07/05 02:08:28;;;;;;;;;;;;;;;16.91;61.37;101594.97;5046553;28;19932;-81
2022/07/05 02:10:53;;;;;;;;;;;;;;;16.89;61.47;101591.53;5032208;28;20099;-81
2022/07/05 02:13:20;;;;;;;;;;;;;;;16.94;61.45;101592.22;5024732;28;20387;-81
2022/07/05 02:15:46;;;;;;;;;;;;;;;16.91;61.25;101596.72;5041570;28;19925;-81
2022/07/05 02:18:11;;;;;;;;;;;;;;;16.86;60.80;101594.25;5043126;28;20365;-77
2022/07/05 02:20:37;;;;;;;;;;;;;;;16.91;60.83;101594.97;5040045;28;19925;-77
2022/07/05 02:23:03;;;;;;;;;;;;;;;16.78;61.51;101600.69;5022754;28;19921;-78
2022/07/05 02:25:28;;;;;;;;;;;;;;;16.70;61.45;101595.69;5045852;28;20307;-78
2022/07/05 02:27:54;;;;;;;;;;;;;;;16.82;61.04;101591.78;5050847;28;19963;-78
2022/07/05 02:30:19;;;;;;;;;;;;;;;16.82;61.18;101594.41;5045584;28;20049;-81
2022/07/05 02:32:45;;;;;;;;;;;;;;;16.91;60.95;101597.59;5045991;28;20020;-81
2022/07/05 02:35:11;;;;;;;;;;;;;;;16.76;61.64;101592.84;5045788;28;19993;-77
2022/07/05 02:37:36;;;;;;;;;;;;;;;16.70;61.99;101597.47;5048538;28;19932;-78
2022/07/05 02:40:01;;;;;;;;;;;;;;;16.74;61.48;101594.69;5029949;28;20409;-77
2022/07/05 02:42:27;;;;;;;;;;;;;;;16.72;61.48;101596.50;5045691;28;19920;-77
2022/07/05 02:44:52;;;;;;;;;;;;;;;16.71;61.51;101593.91;5045281;28;19929;-81
2022/07/05 02:47:17;;;;;;;;;;;;;;;16.66;61.53;101596.69;5042970;28;19928;-81
2022/07/05 02:49:42;;;;;;;;;;;;;;;16.65;61.96;101596.72;5042277;28;19932;-79
2022/07/05 02:52:08;;;;;;;;;;;;;;;16.63;62.37;101604.66;5047484;28;20561;-78
2022/07/05 02:54:33;;;;;;;;;;;;;;;16.50;62.28;101606.78;5027034;28;19956;-78
2022/07/05 02:56:59;;;;;;;;;;;;;;;16.54;62.87;101607.56;5044513;28;19925;-81
2022/07/05 02:59:24;;;;;;;;;;;;;;;16.59;62.26;101610.03;5035856;28;19940;-81
2022/07/05 03:01:49;;;;;;;;;;;;;;;16.63;61.72;101609.88;5045133;28;19929;-81
2022/07/05 03:04:15;;;;;;;;;;;;;;;16.67;61.19;101608.84;5041217;28;20356;-81
2022/07/05 03:06:40;;;;;;;;;;;;;;;16.61;62.15;101595.94;5045183;28;19951;-81
2022/07/05 03:09:05;;;;;;;;;;;;;;;16.57;61.92;101596.97;5041935;28;20284;-81
2022/07/05 03:11:30;;;;;;;;;;;;;;;16.51;61.66;101605.03;5039718;28;19928;-81
2022/07/05 03:13:56;;;;;;;;;;;;;;;16.48;62.45;101602.50;5039769;28;19921;-81
2022/07/05 03:16:23;;;;;;;;;;;;;;;16.41;62.79;101599.22;5042217;28;19933;-81
2022/07/05 03:18:49;;;;;;;;;;;;;;;16.47;62.55;101601.66;5039338;28;19932;-81
2022/07/05 03:21:14;;;;;;;;;;;;;;;16.44;62.74;101604.38;5043839;28;19925;-77
2022/07/05 03:23:39;;;;;;;;;;;;;;;16.42;62.62;101600.09;5026572;28;19924;-76
2022/07/05 03:26:05;;;;;;;;;;;;;;;16.45;62.64;101602.63;5042624;28;19982;-81
2022/07/05 03:28:30;;;;;;;;;;;;;;;16.45;62.71;101613.09;5050140;28;20403;-81
2022/07/05 03:30:55;;;;;;;;;;;;;;;16.41;62.75;101609.72;5026562;28;20807;-81
2022/07/05 03:33:21;;;;;;;;;;;;;;;16.44;62.89;101609.63;5029853;28;19932;-79
2022/07/05 03:35:46;;;;;;;;;;;;;;;16.34;63.55;101612.59;5043597;28;19929;-81
2022/07/05 03:38:11;;;;;;;;;;;;;;;16.46;63.26;101614.81;5045328;28;19929;-82
2022/07/05 03:40:37;;;;;;;;;;;;;;;16.36;63.49;101613.38;5040790;28;20405;-81
2022/07/05 03:43:02;;;;;;;;;;;;;;;16.32;63.82;101607.38;5041803;28;19921;-81
2022/07/05 03:45:27;;;;;;;;;;;;;;;16.38;63.22;101612.44;5029560;28;19917;-81
2022/07/05 03:47:56;;;;;;;;;;;;;;;16.38;63.60;101612.44;5048641;28;19932;-81
2022/07/05 03:50:22;;;;;;;;;;;;;;;16.35;63.99;101614.28;5036545;28;19925;-81
2022/07/05 03:52:47;;;;;;;;;;;;;;;16.30;63.30;101611.81;5026200;28;19929;-81
2022/07/05 03:55:12;;;;;;;;;;;;;;;16.31;63.56;101610.06;5023149;28;19923;-81
2022/07/05 03:57:38;;;;;;;;;;;;;;;16.29;63.25;101614.47;5040446;28;20383;-81
2022/07/05 04:00:03;;;;;;;;;;;;;;;16.22;64.16;101615.59;5011798;28;19999;-79
2022/07/05 04:02:29;;;;;;;;;;;;;;;16.26;63.84;101622.44;5042490;28;19981;-78
2022/07/05 04:04:54;;;;;;;;;;;;;;;16.37;63.10;101620.38;5027363;28;19925;-78
2022/07/05 04:07:20;;;;;;;;;;;;;;;16.34;62.92;101625.69;5028134;28;19929;-77
2022/07/05 04:09:45;;;;;;;;;;;;;;;16.32;62.36;101617.88;5045631;28;19920;-76
2022/07/05 04:12:10;;;;;;;;;;;;;;;16.38;62.66;101627.31;5040494;28;20502;-77
2022/07/05 04:14:36;;;;;;;;;;;;;;;16.44;61.66;101624.50;5039451;28;20659;-76
2022/07/05 04:17:01;;;;;;;;;;;;;;;16.52;61.23;101628.56;5043091;28;19924;-76
2022/07/05 04:19:26;;;;;;;;;;;;;;;16.46;62.05;101630.56;5041183;28;20096;-77
2022/07/05 04:21:51;;;;;;;;;;;;;;;16.46;61.88;101635.81;5041843;28;19987;-76
2022/07/05 04:24:17;;;;;;;;;;;;;;;16.49;61.75;101631.31;5029332;28;20408;-77
2022/07/05 04:26:42;;;;;;;;;;;;;;;16.42;61.98;101635.03;5047565;28;20038;-77
2022/07/05 04:29:07;;;;;;;;;;;;;;;16.56;61.86;101638.97;5028071;28;20007;-77
2022/07/05 04:31:34;;;;;;;;;;;;;;;16.59;61.59;101644.13;5024234;28;19964;-77
2022/07/05 04:33:59;;;;;;;;;;;;;;;16.52;62.32;101640.88;5026777;28;20581;-78
2022/07/05 04:36:25;;;;;;;;;;;;;;;16.57;62.33;101657.31;5044846;28;20509;-78
2022/07/05 04:38:50;;;;;;;;;;;;;;;16.55;61.59;101650.41;5046684;28;19925;-78
2022/07/05 04:41:15;;;;;;;;;;;;;;;16.54;61.70;101649.53;5048162;28;19929;-77
2022/07/05 04:43:41;;;;;;;;;;;;;;;16.58;61.99;101655.53;5046059;28;19929;-78
2022/07/05 04:46:06;;;;;;;;;;;;;;;16.59;61.84;101659.88;5041889;28;20420;-78
2022/07/05 04:48:31;;;;;;;;;;;;;;;16.51;61.81;101660.13;5047963;28;20566;-78
2022/07/05 04:50:57;;;;;;;;;;;;;;;16.41;62.38;101666.53;5042503;28;19921;-78
2022/07/05 04:53:22;;;;;;;;;;;;;;;16.48;62.80;101665.47;5045004;28;19925;-77
2022/07/05 04:55:47;;;;;;;;;;;;;;;16.46;62.65;101655.00;5029425;28;19921;-78
2022/07/05 04:58:13;;;;;;;;;;;;;;;16.47;62.79;101658.47;5027169;28;19935;-81
2022/07/05 05:00:38;;;;;;;;;;;;;;;16.38;63.15;101664.88;5042271;28;19916;-81
2022/07/05 05:03:03;;;;;;;;;;;;;;;16.43;63.49;101659.50;5026354;28;19924;-77
2022/07/05 05:05:28;;;;;;;;;;;;;;;16.57;62.67;101667.78;5041222;28;20512;-77
2022/07/05 05:07:54;;;;;;;;;;;;;;;16.53;62.60;101674.03;5025941;28;19931;-78
2022/07/05 05:10:19;;;;;;;;;;;;;;;16.47;63.88;101667.22;5043022;28;19924;-78
2022/07/05 05:12:44;;;;;;;;;;;;;;;16.58;62.86;101669.50;5042673;28;20066;-77
2022/07/05 05:15:10;;;;;;;;;;;;;;;16.55;62.96;101666.13;5022070;28;19935;-78
2022/07/05 05:17:40;;;;;;;;;;;;;;;16.63;62.66;101654.50;5040044;28;20050;-77
2022/07/05 05:20:07;;;;;;;;;;;;;;;16.67;62.99;101663.13;5040112;28;19925;-82
2022/07/05 05:22:32;;;;;;;;;;;;;;;16.74;62.60;101667.28;5045077;28;19932;-81
2022/07/05 05:24:57;;;;;;;;;;;;;;;16.69;62.48;101667.44;5044266;28;19921;-81
2022/07/05 05:27:23;;;;;;;;;;;;;;;16.57;62.97;101675.66;5045888;28;19921;-81
2022/07/05 05:29:48;;;;;;;;;;;;;;;16.65;63.23;101672.78;5048589;28;19921;-77
2022/07/05 05:32:13;;;;;;;;;;;;;;;16.48;63.01;101673.31;5030234;28;19925;-77
2022/07/05 05:34:39;;;;;;;;;;;;;;;16.59;63.26;101672.97;5044579;28;19960;-76
2022/07/05 05:37:04;;;;;;;;;;;;;;;16.58;63.55;101672.13;5049291;28;20019;-79
2022/07/05 05:39:29;;;;;;;;;;;;;;;16.73;62.83;101674.28;5052484;28;19917;-79
2022/07/05 05:41:54;;;;;;;;;;;;;;;16.65;62.72;101676.28;5051040;28;20277;-78
2022/07/05 05:44:20;;;;;;;;;;;;;;;16.74;62.86;101683.88;5054005;28;19925;-78
2022/07/05 05:46:45;;;;;;;;;;;;;;;16.68;62.89;101680.56;5051810;28;19921;-79
2022/07/05 05:49:10;;;;;;;;;;;;;;;16.67;63.08;101691.97;5060737;28;19925;-79
2022/07/05 05:51:36;;;;;;;;;;;;;;;16.73;63.01;101686.56;5054537;28;19940;-79
2022/07/05 05:54:01;;;;;;;;;;;;;;;16.76;62.77;101678.59;5038756;28;20357;-79
2022/07/05 05:56:26;;;;;;;;;;;;;;;16.75;63.31;101682.13;5052441;28;19979;-78
2022/07/05 05:58:52;;;;;;;;;;;;;;;16.75;64.11;101690.00;5050832;28;19921;-78
2022/07/05 06:01:17;;;;;;;;;;;;;;;16.79;64.32;101692.47;5049991;28;20023;-79
2022/07/05 06:03:43;;;;;;;;;;;;;;;16.84;63.66;101693.19;5050534;28;19909;-79
2022/07/05 06:06:08;;;;;;;;;;;;;;;16.76;62.79;101695.19;5043822;28;19961;-79
2022/07/05 06:08:33;;;;;;;;;;;;;;;16.76;62.75;101697.81;5047167;28;20401;-79
2022/07/05 06:10:59;;;;;;;;;;;;;;;16.68;63.85;101696.31;5048141;28;19982;-79
2022/07/05 06:13:24;;;;;;;;;;;;;;;16.86;64.35;101707.13;5030018;28;19929;-82
2022/07/05 06:15:49;;;;;;;;;;;;;;;16.83;64.56;101698.47;5041269;28;19925;-82
2022/07/05 06:18:15;;;;;;;;;;;;;;;16.83;63.64;101699.34;5042076;28;20378;-82
2022/07/05 06:20:40;;;;;;;;;;;;;;;16.88;62.88;101702.66;5044975;28;19928;-82
2022/07/05 06:23:06;;;;;;;;;;;;;;;16.89;62.75;101706.16;5052418;28;19939;-82
2022/07/05 06:25:32;;;;;;;;;;;;;;;16.97;62.70;101705.00;5047610;28;19920;-82
2022/07/05 06:27:59;;;;;;;;;;;;;;;16.88;62.94;101705.28;5041097;28;19917;-82
2022/07/05 06:30:25;;;;;;;;;;;;;;;16.86;63.12;101707.13;5044814;28;20019;-82
2022/07/05 06:32:51;;;;;;;;;;;;;;;16.92;63.13;101709.53;5011010;28;19929;-82
2022/07/05 06:35:16;;;;;;;;;;;;;;;16.99;63.33;101711.06;5046637;28;20399;-82
2022/07/05 06:37:46;;;;;;;;;;;;;;;17.03;62.15;101715.28;5045126;28;19925;-82
2022/07/05 06:40:12;;;;;;;;;;;;;;;17.04;62.44;101710.91;5047529;28;19925;-81
2022/07/05 06:42:38;;;;;;;;;;;;;;;17.03;63.65;101715.28;5027774;28;19916;-82
2022/07/05 06:45:04;;;;;;;;;;;;;;;17.05;63.27;101718.75;5043342;28;19931;-82
2022/07/05 06:47:29;;;;;;;;;;;;;;;17.06;64.45;101720.44;5045139;28;20001;-79
2022/07/05 06:49:57;;;;;;;;;;;;;;;17.08;63.58;101720.41;5029636;28;20011;-79
2022/07/05 06:52:22;;;;;;;;;;;;;;;17.03;62.93;101723.16;5027365;28;19931;-78
2022/07/05 06:54:47;;;;;;;;;;;;;;;17.08;63.98;101725.66;5045532;28;19925;-78
2022/07/05 06:57:13;;;;;;;;;;;;;;;17.11;63.30;101724.69;5019846;28;20391;-78
2022/07/05 06:59:38;;;;;;;;;;;;;;;17.01;63.15;101719.75;5023943;28;19925;-78
2022/07/05 07:02:03;;;;;;;;;;;;;;;17.03;62.70;101723.16;5042325;28;19978;-78
2022/07/05 07:04:29;;;;;;;;;;;;;;;17.06;63.29;101717.81;5045188;28;20427;-78
2022/07/05 07:06:54;;;;;;;;;;;;;;;17.10;63.15;101721.22;5042588;28;19920;-78
2022/07/05 07:09:21;;;;;;;;;;;;;;;17.22;63.30;101723.44;5026473;28;19925;-78
2022/07/05 07:11:48;;;;;;;;;;;;;;;17.25;62.16;101727.72;5026855;28;20339;-78
2022/07/05 07:14:13;;;;;;;;;;;;;;;17.24;62.48;101720.75;5044772;28;19928;-78
2022/07/05 07:16:39;;;;;;;;;;;;;;;17.25;61.51;101725.97;5049515;28;19927;-78
2022/07/05 07:19:04;;;;;;;;;;;;;;;17.31;62.48;101722.25;5041661;28;21346;-78
2022/07/05 07:21:29;;;;;;;;;;;;;;;17.33;62.41;101725.69;5043941;28;19921;-78
2022/07/05 07:23:55;;;;;;;;;;;;;;;17.35;61.22;101729.13;5041958;28;19921;-78
2022/07/05 07:26:20;;;;;;;;;;;;;;;17.29;61.29;101730.22;5029506;28;20024;-78
2022/07/05 07:28:45;;;;;;;;;;;;;;;17.33;60.99;101725.69;5029273;28;19921;-78
2022/07/05 07:31:11;;;;;;;;;;;;;;;17.29;62.55;101727.59;5028669;28;19947;-78
2022/07/05 07:33:36;;;;;;;;;;;;;;;17.34;62.00;101733.53;5046204;28;19982;-78
2022/07/05 07:36:02;;;;;;;;;;;;;;;17.39;62.43;101734.22;5046906;28;19924;-78
2022/07/05 07:38:27;;;;;;;;;;;;;;;17.47;61.53;101723.47;5044936;28;19982;-78
2022/07/05 07:40:53;;;;;;;;;;;;;;;17.49;62.63;101734.78;5048165;28;19924;-78
2022/07/05 07:43:18;;;;;;;;;;;;;;;17.50;62.31;101731.25;5024661;28;19933;-78
2022/07/05 07:45:43;;;;;;;;;;;;;;;17.51;62.32;101732.94;5047117;28;20303;-79
2022/07/05 07:48:14;;;;;;;;;;;;;;;17.52;60.02;101721.53;5043295;28;20329;-79
2022/07/05 07:50:40;;;;;;;;;;;;;;;17.57;59.19;101730.09;5034331;28;20011;-79
2022/07/05 07:53:05;;;;;;;;;;;;;;;17.55;59.62;101731.94;5036577;28;20047;-79
2022/07/05 07:55:30;;;;;;;;;;;;;;;17.56;59.57;101723.16;5025813;28;19929;-79
2022/07/05 07:57:56;;;;;;;;;;;;;;;17.60;59.37;101725.63;5042190;28;19927;-79
2022/07/05 08:00:21;;;;;;;;;;;;;;;17.63;58.13;101729.06;5022854;28;19932;-79
2022/07/05 08:02:50;;;;;;;;;;;;;;;17.66;58.06;101734.22;5027731;28;19925;-78
2022/07/05 08:05:15;;;;;;;;;;;;;;;17.63;57.15;101732.56;5009063;28;19921;-78
2022/07/05 08:07:40;;;;;;;;;;;;;;;17.65;56.25;101730.72;5033666;28;19978;-78
2022/07/05 08:10:06;;;;;;;;;;;;;;;17.71;56.62;101734.94;5042139;28;19928;-78
2022/07/05 08:12:32;;;;;;;;;;;;;;;17.71;56.47;101732.31;5040496;28;20403;-78
2022/07/05 08:14:57;;;;;;;;;;;;;;;17.72;56.39;101736.63;5042793;28;20027;-78
2022/07/05 08:17:22;;;;;;;;;;;;;;;17.70;56.93;101743.72;5022704;28;19931;-79
2022/07/05 08:22:32;;;;;;;;;;;;;;;17.77;55.21;101730.28;5038825;28;20117;-79
2022/07/05 08:24:57;;;;;;;;;;;;;;;17.81;55.20;101725.78;5029143;28;20019;-78
2022/07/05 08:27:23;;;;;;;;;;;;;;;17.82;55.35;101723.13;5038366;28;19925;-78
2022/07/05 08:29:49;;;;;;;;;;;;;;;17.82;56.55;101720.50;5024517;28;19924;-78
2022/07/05 08:32:14;;;;;;;;;;;;;;;17.84;56.40;101721.28;5031151;28;20043;-79
2022/07/05 08:34:40;;;;;;;;;;;;;;;17.83;55.99;101716.94;5025506;28;20074;-79
2022/07/05 08:37:06;;;;;;;;;;;;;;;17.86;56.75;101716.81;5043731;28;19943;-79
2022/07/05 08:39:31;;;;;;;;;;;;;;;17.88;54.58;101719.41;5047290;28;19912;-78
2022/07/05 08:41:57;;;;;;;;;;;;;;;17.88;53.75;101719.41;5040356;28;19925;-79
2022/07/05 08:44:23;;;;;;;;;;;;;;;17.93;54.15;101715.69;5042182;28;20384;-79
2022/07/05 08:46:50;;;;;;;;;;;;;;;17.92;54.19;101727.13;5045593;28;19921;-79
2022/07/05 08:49:20;;;;;;;;;;;;;;;17.89;53.60;101729.00;5045683;28;19927;-79
2022/07/05 08:51:45;;;;;;;;;;;;;;;17.92;54.72;101721.84;5046483;28;19913;-79
2022/07/05 08:54:11;;;;;;;;;;;;;;;17.97;53.95;101714.69;5029686;28;19936;-79
2022/07/05 08:56:37;;;;;;;;;;;;;;;17.98;54.46;101718.16;5037883;28;19932;-79
2022/07/05 08:59:03;;;;;;;;;;;;;;;17.99;53.94;101717.25;5026008;28;20414;-79
2022/07/05 09:01:31;;;;;;;;;;;;;;;18.07;53.62;101718.66;5046461;28;19920;-79
2022/07/05 09:04:00;;;;;;;;;;;;;;;18.12;53.03;101719.34;5044306;28;19943;-79
2022/07/05 09:06:25;;;;;;;;;;;;;;;18.08;52.68;101717.78;5041331;28;19925;-79
2022/07/05 09:08:53;;;;;;;;;;;;;;;18.10;51.95;101723.81;5046196;28;20450;-78
2022/07/05 09:11:23;;;;;;;;;;;;;;;18.09;52.91;101719.47;5028884;28;19928;-78
2022/07/05 09:13:48;;;;;;;;;;;;;;;18.06;53.58;101722.22;5039403;28;19925;-79
2022/07/05 09:16:14;;;;;;;;;;;;;;;18.11;50.68;101729.94;5028243;28;22414;-78
2022/07/05 09:18:40;;;;;;;;;;;;;;;18.11;51.21;101720.28;5028581;28;20042;-78
2022/07/05 09:21:31;;;;;;;;;;;;;;;18.12;51.34;101718.53;5039439;28;19936;-78
2022/07/05 09:23:58;;;;;;;;;;;;;;;18.27;51.51;101719.72;5042603;28;19935;-78
2022/07/05 09:26:44;;;;;;;;;;;;;;;18.28;51.61;101713.50;5027805;28;19967;-78
2022/07/05 09:29:16;;;;;;;;;;;;;;;18.23;50.96;101715.47;5010566;28;19932;-78
2022/07/05 09:31:44;;;;;;;;;;;;;;;18.22;50.39;101721.63;5039049;28;19932;-78
2022/07/05 09:34:13;;;;;;;;;;;;;;;18.31;49.16;101721.28;5044032;28;19925;-78
2022/07/05 09:36:50;;;;;;;;;;;;;;;18.35;48.93;101720.28;5047806;28;19917;-78
2022/07/05 09:39:17;;;;;;;;;;;;;;;18.35;48.26;101720.28;5044148;28;20561;-76
2022/07/05 09:41:42;;;;;;;;;;;;;;;18.40;48.19;101724.44;5041934;28;19931;-81
2022/07/05 09:44:08;;;;;;;;;;;;;;;18.47;48.90;101717.22;5043801;28;20015;-81
2022/07/05 09:46:33;;;;;;;;;;;;;;;18.42;48.97;101717.34;5043339;28;19924;-77
2022/07/05 09:48:59;;;;;;;;;;;;;;;18.53;48.96;101714.34;5022287;28;19925;-78
2022/07/05 09:51:25;;;;;;;;;;;;;;;18.41;49.18;101714.78;5026109;28;19921;-78
2022/07/05 09:53:51;;;;;;;;;;;;;;;18.47;49.47;101717.22;5046552;28;20311;-78
2022/07/05 09:56:17;;;;;;;;;;;;;;;18.50;49.65;101715.31;5040406;28;19974;-78
2022/07/05 09:58:43;;;;;;;;;;;;;;;18.48;49.35;101716.31;5022394;28;19936;-78
2022/07/05 10:01:28;;;;;;;;;;;;;;;18.44;49.63;101720.78;5040361;28;19939;-78
2022/07/05 10:03:54;;;;;;;;;;;;;;;18.44;48.95;101722.56;5044173;28;19912;-78
2022/07/05 10:06:20;;;;;;;;;;;;;;;18.50;48.65;101719.72;5041538;28;19932;-77
2022/07/05 10:08:48;;;;;;;;;;;;;;;18.40;49.52;101719.19;5044847;28;19925;-77
2022/07/05 10:11:13;;;;;;;;;;;;;;;18.59;48.35;101717.59;5043650;28;19994;-77
2022/07/05 10:13:39;;;;;;;;;;;;;;;18.60;46.34;101716.66;5039285;28;20391;-77
2022/07/05 10:16:05;;;;;;;;;;;;;;;18.53;48.67;101723.09;5043135;28;19916;-78
2022/07/05 10:18:32;;;;;;;;;;;;;;;18.72;44.47;101719.75;5040050;28;20388;-77
2022/07/05 10:20:59;;;;;;;;;;;;;;;18.65;48.04;101716.50;5031021;28;19924;-77
2022/07/05 10:23:25;;;;;;;;;;;;;;;18.67;46.32;101712.88;5038419;28;20431;-77
2022/07/05 10:25:51;;;;;;;;;;;;;;;18.63;45.70;101718.31;5043341;28;19932;-77
2022/07/05 10:28:17;;;;;;;;;;;;;;;18.59;46.03;101722.00;5042047;28;19939;-77
2022/07/05 10:30:45;;;;;;;;;;;;;;;18.64;46.01;101726.16;5040017;28;19928;-77
2022/07/05 10:33:11;;;;;;;;;;;;;;;18.69;43.77;101716.28;5033063;28;19932;-77
2022/07/05 10:35:38;;;;;;;;;;;;;;;18.78;42.96;101720.34;5048992;28;19921;-77
2022/07/05 10:38:05;;;;;;;;;;;;;;;18.79;42.99;101722.06;5025771;28;20303;-77
2022/07/05 10:40:32;;;;;;;;;;;;;;;18.78;43.44;101716.88;5049838;28;19959;-77
2022/07/05 10:42:59;;;;;;;;;;;;;;;18.67;43.51;101720.78;5034218;28;19917;-77
2022/07/05 10:45:24;;;;;;;;;;;;;;;18.71;42.96;101718.88;5038086;28;19925;-77
2022/07/05 10:48:08;;;;;;;;;;;;;;;18.76;44.16;101721.31;5040995;28;20362;-78
2022/07/05 10:50:46;;;;;;;;;;;;;;;18.80;43.83;101712.38;5025241;28;20476;-78
2022/07/05 10:53:12;;;;;;;;;;;;;;;18.76;43.21;101710.78;5024665;28;19925;-77
2022/07/05 10:55:51;;;;;;;;;;;;;;;18.76;44.29;101706.38;5006796;28;20338;-77
2022/07/05 10:58:17;;;;;;;;;;;;;;;18.83;41.19;101702.59;5030045;28;19940;-77
2022/07/05 11:00:43;;;;;;;;;;;;;;;18.86;41.01;101707.75;5046563;28;19928;-77
2022/07/05 11:03:28;;;;;;;;;;;;;;;18.73;45.32;101710.91;5048000;28;20299;-77
2022/07/05 11:05:54;;;;;;;;;;;;;;;18.97;42.80;101702.88;5033900;28;19924;-77
2022/07/05 11:08:20;;;;;;;;;;;;;;;18.77;43.13;101704.63;5031193;28;19925;-77
2022/07/05 11:11:04;;;;;;;;;;;;;;;18.88;42.09;101698.00;5046986;28;19932;-77
2022/07/05 11:13:39;;;;;;;;;;;;;;;18.92;43.48;101707.50;5045218;28;20142;-77
2022/07/05 11:16:19;;;;;;;;;;;;;;;19.00;43.15;101702.75;5029581;28;19940;-78
2022/07/05 11:18:45;;;;;;;;;;;;;;;19.07;44.60;101711.28;5047108;28;19920;-77
2022/07/05 11:21:17;;;;;;;;;;;;;;;19.12;43.05;101707.53;5047760;28;22004;-77
2022/07/05 11:23:42;;;;;;;;;;;;;;;19.15;43.42;101704.75;5044091;28;19974;-77
2022/07/05 11:26:07;;;;;;;;;;;;;;;19.06;43.70;101702.50;5043383;28;20026;-77
2022/07/05 11:28:42;;;;;;;;;;;;;;;19.05;44.34;101707.81;5047727;28;19921;-77
2022/07/05 11:31:08;;;;;;;;;;;;;;;19.06;43.55;101697.25;5041849;28;19912;-78
2022/07/05 11:33:34;;;;;;;;;;;;;;;19.16;43.13;101695.91;5041720;28;19920;-77
2022/07/05 11:36:00;;;;;;;;;;;;;;;19.07;43.10;101692.84;5037203;28;19947;-77
2022/07/05 11:38:26;;;;;;;;;;;;;;;19.15;42.85;101688.97;5038529;28;19936;-77
2022/07/05 11:40:53;;;;;;;;;;;;;;;19.37;42.13;101694.22;5025526;28;19933;-77
2022/07/05 11:43:28;;;;;;;;;;;;;;;19.38;42.47;101684.50;5038253;28;19928;-81
2022/07/05 11:46:00;;;;;;;;;;;;;;;19.26;43.78;101685.88;5040318;28;20449;-82
2022/07/05 11:48:26;;;;;;;;;;;;;;;19.30;42.54;101682.22;5041066;28;19983;-78
2022/07/05 11:50:51;;;;;;;;;;;;;;;19.18;43.01;101687.97;5038221;28;19937;-78
2022/07/05 11:53:27;;;;;;;;;;;;;;;19.23;42.03;101678.94;5038615;28;19928;-79
2022/07/05 11:55:59;;;;;;;;;;;;;;;19.22;41.78;101687.75;5024534;28;19932;-78
2022/07/05 11:58:32;;;;;;;;;;;;;;;19.25;41.23;101682.38;5037834;28;20162;-78
2022/07/05 12:00:57;;;;;;;;;;;;;;;19.26;41.75;101681.47;5034799;28;19917;-78
2022/07/05 12:03:22;;;;;;;;;;;;;;;19.40;41.22;101682.69;5037856;28;20976;-78
2022/07/05 12:05:48;;;;;;;;;;;;;;;19.18;41.56;101667.75;5037687;28;19932;-79
2022/07/05 12:08:19;;;;;;;;;;;;;;;19.35;42.03;101666.19;5023384;28;20289;-77
2022/07/05 12:13:42;;;;;;;;;;;;;;;19.32;42.76;101672.47;5037601;28;19940;-79
2022/07/05 12:16:08;;;;;;;;;;;;;;;19.34;42.41;101664.50;5023923;28;19932;-79
2022/07/05 12:18:45;;;;;;;;;;;;;;;19.38;42.12;101668.69;5045110;28;19933;-79
2022/07/05 12:21:14;;;;;;;;;;;;;;;19.47;41.80;101657.75;5034776;28;20021;-77
2022/07/05 12:23:43;;;;;;;;;;;;;;;19.52;41.35;101661.91;5036142;28;19940;-78
2022/07/05 12:26:09;;;;;;;;;;;;;;;19.49;40.21;101659.41;5034292;28;19925;-78
2022/07/05 12:28:36;;;;;;;;;;;;;;;19.49;41.83;101656.78;5022686;28;19925;-78
2022/07/05 12:31:14;;;;;;;;;;;;;;;19.45;42.13;101662.25;5026629;28;20494;-78
2022/07/05 12:33:39;;;;;;;;;;;;;;;19.54;41.62;101649.53;5042885;28;20392;-78
2022/07/05 12:36:10;;;;;;;;;;;;;;;19.46;42.44;101651.63;5045285;28;20054;-78
2022/07/05 12:38:35;;;;;;;;;;;;;;;19.55;43.23;101655.66;5043273;28;19925;-77